createdAt,value
2022-09-09T00:00:19.507Z,17.16
2022-09-09T00:02:58.739Z,17.06
2022-09-09T00:06:08.568Z,17.13
2022-09-09T00:08:55.268Z,17.13
2022-09-09T00:11:40.441Z,17.17
2022-09-09T00:14:19.877Z,17.16
2022-09-09T00:16:55.947Z,17.19
2022-09-09T00:19:31.786Z,17.09
2022-09-09T00:22:20.155Z,17.09
2022-09-09T00:24:57.477Z,16.97
2022-09-09T00:27:25.042Z,17.05
2022-09-09T00:30:00.147Z,17.04
2022-09-09T00:32:31.694Z,17.06
2022-09-09T00:35:19.041Z,17.06
2022-09-09T00:37:52.953Z,17.07
2022-09-09T00:40:37.954Z,16.92
2022-09-09T00:43:33.322Z,16.97
2022-09-09T00:46:43.171Z,16.99
2022-09-09T00:49:37.301Z,16.86
2022-09-09T00:52:40.051Z,16.96
2022-09-09T00:55:22.585Z,16.86
2022-09-09T00:57:53.751Z,16.72
2022-09-09T01:00:27.905Z,16.87
2022-09-09T01:03:09.112Z,16.87
2022-09-09T01:05:51.866Z,16.87
2022-09-09T01:09:10.793Z,16.87
2022-09-09T01:12:18.773Z,16.81
2022-09-09T01:15:00.100Z,16.64
2022-09-09T01:17:40.370Z,16.79
2022-09-09T01:20:33.848Z,16.60
2022-09-09T01:23:40.062Z,16.72
2022-09-09T01:26:38.858Z,16.71
2022-09-09T01:29:19.507Z,16.58
2022-09-09T01:32:01.725Z,16.74
2022-09-09T01:34:37.522Z,16.75
2022-09-09T01:37:09.436Z,16.58
2022-09-09T01:39:43.399Z,16.65
2022-09-09T01:42:16.567Z,16.73
2022-09-09T01:44:44.722Z,16.73
2022-09-09T01:47:12.573Z,16.69
2022-09-09T01:49:56.164Z,16.55
2022-09-09T01:52:27.557Z,16.50
2022-09-09T01:54:56.562Z,16.61
2022-09-09T01:58:19.940Z,16.68
2022-09-09T02:01:48.960Z,16.69
2022-09-09T02:04:45.216Z,16.66
2022-09-09T02:07:31.494Z,16.69
2022-09-09T02:10:13.565Z,16.61
2022-09-09T02:13:02.675Z,16.70
2022-09-09T02:16:23.341Z,16.70
2022-09-09T02:19:09.130Z,16.66
2022-09-09T02:21:49.517Z,16.66
2022-09-09T02:24:17.700Z,16.63
2022-09-09T02:26:56.444Z,16.69
2022-09-09T02:29:30.586Z,16.72
2022-09-09T02:32:04.304Z,16.60
2022-09-09T02:34:41.740Z,16.53
2022-09-09T02:37:12.218Z,16.69
2022-09-09T02:39:43.081Z,16.67
2022-09-09T02:42:15.914Z,16.67
2022-09-09T02:44:46.218Z,16.66
2022-09-09T02:47:29.575Z,16.71
2022-09-09T02:50:10.721Z,16.64
2022-09-09T02:53:17.478Z,16.69
2022-09-09T02:55:52.258Z,16.69
2022-09-09T02:58:23.062Z,16.67
2022-09-09T03:01:03.967Z,16.61
2022-09-09T03:03:33.027Z,16.51
2022-09-09T03:06:04.078Z,16.70
2022-09-09T03:08:31.882Z,16.65
2022-09-09T03:11:02.389Z,16.66
2022-09-09T03:13:32.708Z,16.61
2022-09-09T03:16:00.895Z,16.63
2022-09-09T03:18:30.971Z,16.63
2022-09-09T03:21:00.636Z,16.56
2022-09-09T03:23:29.215Z,16.59
2022-09-09T03:25:59.598Z,16.61
2022-09-09T03:28:36.641Z,16.41
2022-09-09T03:31:06.602Z,16.58
2022-09-09T03:33:39.827Z,16.59
2022-09-09T03:36:11.500Z,16.62
2022-09-09T03:38:39.631Z,16.61
2022-09-09T03:41:08.902Z,16.52
2022-09-09T03:43:37.463Z,16.60
2022-09-09T03:46:05.816Z,16.63
2022-09-09T03:48:33.639Z,16.61
2022-09-09T03:51:02.430Z,16.62
2022-09-09T03:53:32.926Z,16.60
2022-09-09T03:56:01.702Z,16.65
2022-09-09T03:58:31.168Z,16.60
2022-09-09T04:01:11.025Z,16.51
2022-09-09T04:03:41.401Z,16.58
2022-09-09T04:06:13.788Z,16.54
2022-09-09T04:08:42.906Z,16.52
2022-09-09T04:11:10.919Z,16.55
2022-09-09T04:13:40.280Z,16.54
2022-09-09T04:16:14.290Z,16.57
2022-09-09T04:18:43.863Z,16.56
2022-09-09T04:21:13.307Z,16.45
2022-09-09T04:23:41.863Z,16.29
2022-09-09T04:26:10.211Z,16.51
2022-09-09T04:28:39.009Z,16.55
2022-09-09T04:31:23.941Z,16.28
2022-09-09T04:33:54.888Z,16.27
2022-09-09T04:36:23.741Z,16.46
2022-09-09T04:38:55.759Z,16.41
2022-09-09T04:41:46.593Z,16.40
2022-09-09T04:44:18.083Z,16.08
2022-09-09T04:46:46.146Z,16.41
2022-09-09T04:49:15.413Z,16.12
2022-09-09T04:51:44.437Z,16.28
2022-09-09T04:54:15.165Z,16.30
2022-09-09T04:56:45.340Z,16.27
2022-09-09T04:59:13.598Z,16.12
2022-09-09T05:01:46.630Z,16.28
2022-09-09T05:04:17.107Z,16.29
2022-09-09T05:06:45.118Z,16.30
2022-09-09T05:09:13.969Z,16.26
2022-09-09T05:11:41.684Z,16.25
2022-09-09T05:14:16.633Z,16.21
2022-09-09T05:16:46.389Z,16.23
2022-09-09T05:19:14.320Z,16.21
2022-09-09T05:21:46.543Z,16.19
2022-09-09T05:24:17.768Z,16.21
2022-09-09T05:26:47.282Z,16.20
2022-09-09T05:29:14.973Z,16.15
2022-09-09T05:31:42.967Z,16.20
2022-09-09T05:34:15.303Z,16.17
2022-09-09T05:36:43.053Z,16.20
2022-09-09T05:39:13.006Z,16.20
2022-09-09T05:41:40.961Z,16.21
2022-09-09T05:44:09.767Z,16.18
2022-09-09T05:46:40.845Z,16.17
2022-09-09T05:49:09.276Z,16.06
2022-09-09T05:51:37.524Z,16.22
2022-09-09T05:54:11.898Z,16.21
2022-09-09T05:56:44.987Z,16.06
2022-09-09T05:59:15.902Z,16.21
2022-09-09T06:01:43.884Z,16.21
2022-09-09T06:04:25.943Z,16.17
2022-09-09T06:06:54.357Z,16.32
2022-09-09T06:09:24.052Z,16.24
2022-09-09T06:11:51.839Z,16.31
2022-09-09T06:14:21.507Z,16.44
2022-09-09T06:16:50.546Z,16.24
2022-09-09T06:19:22.176Z,16.40
2022-09-09T06:21:51.302Z,16.44
2022-09-09T06:24:20.475Z,16.42
2022-09-09T06:26:48.108Z,16.45
2022-09-09T06:29:22.958Z,16.43
2022-09-09T06:31:52.644Z,16.38
2022-09-09T06:34:25.097Z,16.48
2022-09-09T06:36:58.793Z,16.45
2022-09-09T06:39:29.436Z,16.47
2022-09-09T06:41:58.911Z,16.37
2022-09-09T06:44:53.431Z,16.41
2022-09-09T06:47:38.529Z,16.42
2022-09-09T06:50:08.329Z,16.53
2022-09-09T06:52:36.971Z,16.52
2022-09-09T06:55:06.026Z,16.65
2022-09-09T06:57:37.284Z,16.68
2022-09-09T07:00:10.409Z,16.75
2022-09-09T07:02:40.135Z,16.80
2022-09-09T07:05:12.438Z,16.68
2022-09-09T07:07:44.817Z,16.72
2022-09-09T07:10:14.469Z,16.67
2022-09-09T07:12:42.113Z,16.72
2022-09-09T07:15:12.299Z,16.63
2022-09-09T07:17:44.206Z,16.71
2022-09-09T07:20:15.996Z,16.62
2022-09-09T07:22:46.536Z,16.72
2022-09-09T07:25:15.183Z,16.76
2022-09-09T07:27:42.918Z,16.75
2022-09-09T07:30:14.807Z,16.74
2022-09-09T07:32:45.943Z,16.71
2022-09-09T07:35:13.645Z,16.69
2022-09-09T07:37:42.272Z,16.70
2022-09-09T07:40:11.403Z,16.69
2022-09-09T07:42:39.662Z,16.66
2022-09-09T07:45:07.726Z,16.64
2022-09-09T07:47:35.401Z,16.70
2022-09-09T07:50:04.788Z,16.45
2022-09-09T07:52:38.889Z,16.53
2022-09-09T07:55:10.303Z,16.72
2022-09-09T07:57:38.579Z,16.58
2022-09-09T08:00:07.460Z,16.66
2022-09-09T08:02:43.383Z,16.50
2022-09-09T08:05:12.180Z,16.64
2022-09-09T08:07:41.329Z,16.73
2022-09-09T08:10:09.300Z,16.69
2022-09-09T08:12:40.290Z,16.66
2022-09-09T08:15:13.706Z,16.56
2022-09-09T08:17:42.027Z,16.57
2022-09-09T08:20:10.375Z,16.58
2022-09-09T08:22:38.757Z,16.70
2022-09-09T08:25:08.360Z,16.69
2022-09-09T08:27:38.215Z,16.70
2022-09-09T08:30:06.830Z,16.69
2022-09-09T08:32:36.184Z,16.69
2022-09-09T08:35:08.155Z,16.70
2022-09-09T08:37:36.441Z,16.78
2022-09-09T08:40:04.371Z,16.85
2022-09-09T08:42:42.553Z,16.73
2022-09-09T08:45:33.300Z,16.94
2022-09-09T08:48:37.820Z,16.97
2022-09-09T08:51:08.322Z,17.05
2022-09-09T08:53:53.634Z,17.05
2022-09-09T08:56:26.908Z,17.24
2022-09-09T08:58:58.442Z,17.30
2022-09-09T09:02:20.982Z,17.27
2022-09-09T09:05:28.654Z,17.45
2022-09-09T09:08:35.521Z,17.57
2022-09-09T09:11:03.961Z,17.70
2022-09-09T09:13:44.124Z,17.73
2022-09-09T09:16:23.527Z,17.73
2022-09-09T09:18:53.603Z,17.74
2022-09-09T09:21:38.028Z,17.64
2022-09-09T09:24:36.772Z,17.77
2022-09-09T09:27:56.663Z,17.74
2022-09-09T09:30:31.201Z,17.84
2022-09-09T09:33:50.476Z,18.09
2022-09-09T09:36:25.745Z,18.08
2022-09-09T09:41:53.316Z,17.99
2022-09-09T09:44:31.197Z,17.87
2022-09-09T09:47:15.447Z,17.82
2022-09-09T09:49:54.277Z,17.76
2022-09-09T09:52:29.306Z,17.65
2022-09-09T09:55:07.584Z,17.88
2022-09-09T09:57:36.312Z,17.94
2022-09-09T10:00:23.942Z,17.99
2022-09-09T10:03:24.046Z,18.05
2022-09-09T10:05:53.802Z,18.06
2022-09-09T10:08:26.853Z,18.03
2022-09-09T10:11:43.689Z,18.21
2022-09-09T10:14:42.197Z,18.39
2022-09-09T10:17:38.327Z,18.45
2022-09-09T10:20:41.014Z,18.41
2022-09-09T10:23:35.803Z,18.45
2022-09-09T10:26:54.193Z,18.68
2022-09-09T10:29:41.109Z,18.59
2022-09-09T10:36:15.270Z,18.69
2022-09-09T10:38:54.839Z,18.66
2022-09-09T10:42:03.380Z,18.59
2022-09-09T10:44:59.973Z,18.56
2022-09-09T10:47:42.188Z,18.57
2022-09-09T10:50:57.147Z,18.76
2022-09-09T10:53:59.119Z,18.81
2022-09-09T10:57:06.032Z,18.30
2022-09-09T10:59:43.197Z,18.56
2022-09-09T11:02:18.595Z,18.97
2022-09-09T11:05:06.972Z,19.02
2022-09-09T11:08:00.468Z,19.22
2022-09-09T11:10:41.536Z,19.32
2022-09-09T11:13:25.684Z,19.23
2022-09-09T11:16:02.551Z,19.30
2022-09-09T11:18:32.956Z,19.34
2022-09-09T11:21:04.995Z,19.36
2022-09-09T11:23:44.838Z,19.35
2022-09-09T11:26:40.316Z,19.22
2022-09-09T11:30:02.080Z,19.22
2022-09-09T11:32:44.814Z,18.85
2022-09-09T11:35:39.844Z,19.08
2022-09-09T11:38:28.824Z,18.87
2022-09-09T11:41:02.561Z,18.90
2022-09-09T11:43:43.006Z,18.88
2022-09-09T11:46:11.776Z,18.89
2022-09-09T11:48:59.498Z,18.93
2022-09-09T11:51:31.363Z,18.89
2022-09-09T11:54:07.545Z,18.76
2022-09-09T11:56:35.111Z,19.11
2022-09-09T11:59:31.304Z,19.22
2022-09-09T12:02:15.782Z,19.33
2022-09-09T12:05:09.753Z,19.32
2022-09-09T12:07:43.789Z,19.31
2022-09-09T12:10:33.594Z,19.15
2022-09-09T12:13:20.317Z,19.08
2022-09-09T12:15:59.803Z,19.01
2022-09-09T12:18:40.349Z,19.06
2022-09-09T12:22:00.770Z,18.92
2022-09-09T12:24:41.569Z,18.66
2022-09-09T12:27:35.636Z,18.86
2022-09-09T12:30:35.578Z,18.75
2022-09-09T12:33:24.643Z,18.73
2022-09-09T12:36:01.734Z,18.89
2022-09-09T12:38:41.779Z,18.85
2022-09-09T12:41:28.439Z,18.84
2022-09-09T12:44:08.979Z,18.75
2022-09-09T12:46:43.125Z,18.84
2022-09-09T12:49:42.157Z,18.83
2022-09-09T12:52:40.050Z,18.77
2022-09-09T12:55:09.720Z,19.01
2022-09-09T12:57:40.270Z,19.17
2022-09-09T13:00:25.952Z,19.07
2022-09-09T13:02:57.000Z,19.02
2022-09-09T13:05:35.337Z,19.06
2022-09-09T13:08:21.567Z,19.06
2022-09-09T13:11:02.959Z,18.99
2022-09-09T13:13:39.086Z,19.34
2022-09-09T13:16:42.127Z,19.46
2022-09-09T13:19:17.282Z,19.51
2022-09-09T13:21:44.995Z,19.53
2022-09-09T13:24:35.828Z,19.39
2022-09-09T13:27:21.437Z,19.13
2022-09-09T13:29:57.861Z,18.98
2022-09-09T13:32:30.281Z,18.82
2022-09-09T13:35:03.746Z,18.70
2022-09-09T13:37:38.580Z,18.63
2022-09-09T13:40:08.442Z,18.55
2022-09-09T13:42:43.727Z,18.45
2022-09-09T13:45:24.219Z,18.43
2022-09-09T13:47:53.736Z,18.42
2022-09-09T13:50:28.273Z,18.56
2022-09-09T13:53:00.136Z,18.77
2022-09-09T13:55:29.735Z,19.08
2022-09-09T13:58:04.316Z,19.12
2022-09-09T14:00:35.681Z,19.32
2022-09-09T14:03:03.483Z,19.47
2022-09-09T14:05:41.505Z,19.38
2022-09-09T14:08:26.005Z,19.11
2022-09-09T14:10:56.369Z,18.90
2022-09-09T14:13:24.099Z,18.64
2022-09-09T14:15:51.858Z,18.53
2022-09-09T14:18:19.626Z,18.60
2022-09-09T14:20:47.274Z,18.41
2022-09-09T14:23:16.550Z,18.22
2022-09-09T14:25:44.934Z,18.18
2022-09-09T14:28:15.270Z,18.29
2022-09-09T14:30:45.558Z,18.27
2022-09-09T14:33:16.903Z,18.29
2022-09-09T14:35:45.200Z,18.24
2022-09-09T14:38:18.357Z,18.19
2022-09-09T14:40:47.898Z,18.17
2022-09-09T14:43:15.818Z,18.14
2022-09-09T14:45:44.688Z,18.30
2022-09-09T14:48:12.362Z,18.37
2022-09-09T14:50:41.037Z,18.41
2022-09-09T14:53:10.991Z,18.36
2022-09-09T14:55:39.864Z,18.45
2022-09-09T14:58:07.697Z,18.51
2022-09-09T15:00:35.354Z,18.56
2022-09-09T15:03:03.091Z,18.52
2022-09-09T15:05:32.917Z,18.48
2022-09-09T15:08:04.216Z,18.60
2022-09-09T15:10:32.623Z,18.52
2022-09-09T15:13:00.221Z,18.49
2022-09-09T15:15:29.189Z,18.66
2022-09-09T15:17:57.732Z,18.54
2022-09-09T15:20:25.299Z,18.38
2022-09-09T15:22:53.247Z,18.28
2022-09-09T15:25:21.106Z,18.25
2022-09-09T15:27:48.759Z,18.21
2022-09-09T15:30:16.492Z,18.14
2022-09-09T15:32:44.071Z,18.18
2022-09-09T15:35:12.459Z,18.14
2022-09-09T15:37:40.091Z,18.17
2022-09-09T15:40:08.582Z,18.27
2022-09-09T15:42:36.192Z,18.38
2022-09-09T15:45:06.099Z,18.56
2022-09-09T15:47:34.543Z,18.64
2022-09-09T15:50:02.157Z,18.64
2022-09-09T15:52:30.110Z,18.72
2022-09-09T15:54:57.727Z,18.65
2022-09-09T15:57:25.423Z,18.68
2022-09-09T15:59:53.039Z,18.68
2022-09-09T16:02:20.669Z,18.63
2022-09-09T16:04:48.287Z,18.61
2022-09-09T16:07:16.388Z,18.52
2022-09-09T16:09:44.551Z,18.38
2022-09-09T16:12:14.001Z,18.34
2022-09-09T16:14:41.802Z,18.29
2022-09-09T16:17:09.895Z,18.26
2022-09-09T16:19:37.506Z,18.23
2022-09-09T16:22:07.535Z,18.16
2022-09-09T16:24:35.223Z,17.98
2022-09-09T16:27:02.805Z,17.78
2022-09-09T16:29:30.480Z,17.59
2022-09-09T16:32:03.772Z,17.41
2022-09-09T16:34:41.213Z,17.30
2022-09-09T16:37:09.333Z,17.36
2022-09-09T16:39:36.919Z,17.43
2022-09-09T16:42:07.380Z,17.49
2022-09-09T16:44:34.920Z,17.54
2022-09-09T16:47:02.966Z,17.49
2022-09-09T16:49:31.004Z,17.53
2022-09-09T16:52:00.465Z,17.65
2022-09-09T16:54:28.325Z,17.82
2022-09-09T16:56:56.032Z,17.91
2022-09-09T16:59:24.523Z,18.00
2022-09-09T17:01:53.201Z,18.14
2022-09-09T17:04:25.086Z,18.24
2022-09-09T17:06:55.779Z,18.22
2022-09-09T17:09:24.675Z,18.35
2022-09-09T17:11:53.314Z,18.33
2022-09-09T17:14:24.796Z,18.42
2022-09-09T17:16:52.467Z,18.39
2022-09-09T17:19:20.014Z,18.25
2022-09-09T17:22:14.886Z,18.36
2022-09-09T17:24:39.590Z,18.44
2022-09-09T17:27:08.040Z,18.44
2022-09-09T17:29:36.915Z,18.30
2022-09-09T17:32:06.365Z,18.33
2022-09-09T17:34:35.228Z,18.37
2022-09-09T17:37:03.130Z,18.35
2022-09-09T17:39:30.747Z,18.19
2022-09-09T17:41:58.349Z,18.21
2022-09-09T17:44:26.028Z,18.14
2022-09-09T17:46:53.635Z,18.16
2022-09-09T17:49:21.263Z,18.05
2022-09-09T17:51:48.878Z,18.06
2022-09-09T17:54:20.874Z,17.97
2022-09-09T17:56:49.876Z,18.10
2022-09-09T17:59:19.126Z,18.06
2022-09-09T18:01:50.934Z,18.08
2022-09-09T18:04:19.909Z,18.11
2022-09-09T18:06:52.643Z,18.08
2022-09-09T18:09:26.083Z,18.07
2022-09-09T18:11:57.135Z,17.95
2022-09-09T18:14:31.328Z,17.98
2022-09-09T18:17:00.970Z,17.97
2022-09-09T18:19:31.179Z,17.92
2022-09-09T18:22:02.352Z,17.79
2022-09-09T18:24:31.732Z,17.73
2022-09-09T18:26:59.812Z,17.80
2022-09-09T18:29:27.932Z,17.77
2022-09-09T18:31:56.747Z,17.66
2022-09-09T18:34:28.465Z,17.78
2022-09-09T18:36:56.572Z,17.75
2022-09-09T18:39:28.380Z,17.66
2022-09-09T18:42:00.433Z,17.63
2022-09-09T18:44:34.705Z,17.57
2022-09-09T18:47:03.575Z,17.60
2022-09-09T18:49:31.461Z,17.63
2022-09-09T18:51:59.562Z,17.55
2022-09-09T18:54:30.212Z,17.56
2022-09-09T18:57:00.776Z,17.57
2022-09-09T18:59:29.446Z,17.41
2022-09-09T19:04:40.618Z,17.38
2022-09-09T19:07:08.392Z,17.49
2022-09-09T19:09:36.505Z,17.32
2022-09-09T19:12:05.862Z,17.38
2022-09-09T19:14:33.944Z,17.41
2022-09-09T19:17:01.939Z,17.27
2022-09-09T19:19:32.834Z,17.29
2022-09-09T19:22:03.776Z,17.37
2022-09-09T19:24:33.627Z,17.35
2022-09-09T19:27:06.853Z,17.23
2022-09-09T19:29:39.363Z,17.33
2022-09-09T19:34:55.994Z,17.27
2022-09-09T19:37:23.764Z,17.19
2022-09-09T19:39:52.277Z,17.16
2022-09-09T19:42:20.009Z,17.22
2022-09-09T19:44:47.734Z,17.21
2022-09-09T19:47:15.453Z,17.10
2022-09-09T19:49:47.269Z,17.24
2022-09-09T19:52:17.068Z,17.13
2022-09-09T19:54:46.687Z,17.26
2022-09-09T19:57:14.740Z,17.13
2022-09-09T19:59:42.441Z,17.14
2022-09-09T20:02:15.278Z,17.08
2022-09-09T20:04:43.339Z,17.09
2022-09-09T20:07:11.139Z,17.07
2022-09-09T20:09:38.802Z,17.10
2022-09-09T20:12:06.727Z,17.12
2022-09-09T20:14:39.223Z,17.04
2022-09-09T20:17:09.029Z,17.04
2022-09-09T20:19:36.814Z,16.88
2022-09-09T20:22:04.522Z,16.95
2022-09-09T20:24:32.256Z,16.96
2022-09-09T20:26:59.836Z,16.97
2022-09-09T20:29:27.496Z,16.93
2022-09-09T20:31:55.211Z,17.00
2022-09-09T20:34:25.816Z,16.97
2022-09-09T20:36:54.691Z,16.90
2022-09-09T20:39:22.573Z,16.91
2022-09-09T20:41:50.360Z,17.03
2022-09-09T20:44:22.838Z,17.04
2022-09-09T20:47:00.069Z,17.01
2022-09-09T20:49:28.097Z,16.94
2022-09-09T20:51:55.813Z,17.04
2022-09-09T20:54:30.314Z,16.95
2022-09-09T20:57:00.337Z,17.02
2022-09-09T20:59:31.247Z,16.90
2022-09-09T21:02:00.877Z,17.02
2022-09-09T21:04:29.175Z,17.00
2022-09-09T21:06:57.268Z,16.92
2022-09-09T21:09:24.912Z,16.93
2022-09-09T21:11:53.700Z,16.98
2022-09-09T21:14:22.432Z,16.94
2022-09-09T21:16:50.559Z,16.85
2022-09-09T21:19:18.642Z,17.03
2022-09-09T21:21:47.794Z,17.03
2022-09-09T21:24:15.379Z,17.06
2022-09-09T21:26:42.960Z,17.04
2022-09-09T21:29:10.616Z,17.06
2022-09-09T21:31:38.321Z,17.05
2022-09-09T21:34:06.231Z,17.05
2022-09-09T21:36:34.040Z,16.88
2022-09-09T21:39:01.615Z,17.03
2022-09-09T21:41:29.308Z,16.98
2022-09-09T21:43:56.929Z,16.98
2022-09-09T21:46:27.723Z,17.02
2022-09-09T21:48:56.598Z,17.04
2022-09-09T21:51:25.106Z,17.03
2022-09-09T21:53:56.612Z,16.92
2022-09-09T21:56:26.724Z,16.98
2022-09-09T21:59:03.945Z,16.91
2022-09-09T22:01:33.638Z,17.01
2022-09-09T22:04:02.319Z,17.02
2022-09-09T22:06:30.390Z,17.00
2022-09-09T22:08:59.463Z,16.92
2022-09-09T22:11:28.199Z,17.02
2022-09-09T22:13:56.189Z,17.04
2022-09-09T22:16:25.588Z,17.04
2022-09-09T22:18:57.216Z,17.04
2022-09-09T22:21:27.208Z,17.03
2022-09-09T22:23:59.060Z,17.07
2022-09-09T22:26:30.295Z,17.03
2022-09-09T22:28:58.296Z,17.06
2022-09-09T22:31:28.242Z,16.93
2022-09-09T22:33:56.180Z,16.99
2022-09-09T22:36:26.015Z,17.06
2022-09-09T22:38:54.371Z,16.99
2022-09-09T22:41:22.559Z,17.02
2022-09-09T22:43:50.396Z,17.04
2022-09-09T22:46:18.982Z,17.00
2022-09-09T22:48:47.264Z,17.01
2022-09-09T22:51:16.353Z,17.05
2022-09-09T22:53:45.899Z,17.05
2022-09-09T22:56:19.386Z,17.02
2022-09-09T22:58:48.235Z,17.01
2022-09-09T23:01:19.351Z,16.97
2022-09-09T23:03:49.358Z,16.98
2022-09-09T23:06:26.063Z,16.88
2022-09-09T23:09:00.624Z,17.00
2022-09-09T23:11:32.537Z,16.90
2022-09-09T23:14:02.386Z,16.92
2022-09-09T23:16:39.616Z,16.95
2022-09-09T23:19:10.816Z,16.85
2022-09-09T23:21:41.130Z,17.00
2022-09-09T23:24:13.295Z,16.98
2022-09-09T23:26:43.468Z,16.94
2022-09-09T23:29:14.833Z,16.95
2022-09-09T23:31:46.593Z,16.95
2022-09-09T23:34:15.122Z,16.97
2022-09-09T23:36:43.069Z,16.96
2022-09-09T23:39:13.248Z,16.69
2022-09-09T23:41:41.345Z,16.94
2022-09-09T23:44:09.027Z,16.92
2022-09-09T23:46:36.739Z,16.86
2022-09-09T23:49:05.039Z,16.81
2022-09-09T23:51:34.797Z,16.89
2022-09-09T23:54:05.130Z,16.86
2022-09-09T23:56:40.467Z,16.90
2022-09-09T23:59:08.944Z,16.84
